sensor_id;sensor_type;location;lat;lon;timestamp;temperature;humidity
26224;DHT22;14820;48.682;8.890;2024-02-23T00:01:47;5.30;99.90
26224;DHT22;14820;48.682;8.890;2024-02-23T00:04:13;5.30;99.90
26224;DHT22;14820;48.682;8.890;2024-02-23T00:06:39;5.40;99.90
26224;DHT22;14820;48.682;8.890;2024-02-23T00:09:05;5.30;99.90
26224;DHT22;14820;48.682;8.890;2024-02-23T00:11:31;5.30;99.90
26224;DHT22;14820;48.682;8.890;2024-02-23T00:13:59;5.30;99.90
26224;DHT22;14820;48.682;8.890;2024-02-23T00:16:25;5.30;99.90
26224;DHT22;14820;48.682;8.890;2024-02-23T00:18:52;5.40;99.90
26224;DHT22;14820;48.682;8.890;2024-02-23T00:21:17;5.30;99.90
26224;DHT22;14820;48.682;8.890;2024-02-23T00:23:43;5.30;99.90
26224;DHT22;14820;48.682;8.890;2024-02-23T00:26:09;5.40;99.90
26224;DHT22;14820;48.682;8.890;2024-02-23T00:28:34;5.40;99.90
26224;DHT22;14820;48.682;8.890;2024-02-23T00:31:00;5.40;99.90
26224;DHT22;14820;48.682;8.890;2024-02-23T00:33:26;5.40;99.90
26224;DHT22;14820;48.682;8.890;2024-02-23T00:35:51;5.50;99.90
26224;DHT22;14820;48.682;8.890;2024-02-23T00:38:17;5.40;99.90
26224;DHT22;14820;48.682;8.890;2024-02-23T00:40:43;5.40;99.90
26224;DHT22;14820;48.682;8.890;2024-02-23T00:43:09;5.40;99.90
26224;DHT22;14820;48.682;8.890;2024-02-23T00:45:35;5.40;99.90
26224;DHT22;14820;48.682;8.890;2024-02-23T00:48:01;5.40;99.90
26224;DHT22;14820;48.682;8.890;2024-02-23T00:50:26;5.40;99.90
26224;DHT22;14820;48.682;8.890;2024-02-23T00:52:53;5.30;99.90
26224;DHT22;14820;48.682;8.890;2024-02-23T00:55:19;5.40;99.90
26224;DHT22;14820;48.682;8.890;2024-02-23T00:57:44;5.30;99.90
26224;DHT22;14820;48.682;8.890;2024-02-23T01:00:11;5.40;99.90
26224;DHT22;14820;48.682;8.890;2024-02-23T01:02:38;5.30;99.90
26224;DHT22;14820;48.682;8.890;2024-02-23T01:05:04;5.30;99.90
26224;DHT22;14820;48.682;8.890;2024-02-23T01:07:30;5.30;99.90
26224;DHT22;14820;48.682;8.890;2024-02-23T01:09:55;5.30;99.90
26224;DHT22;14820;48.682;8.890;2024-02-23T01:12:22;5.40;99.90
26224;DHT22;14820;48.682;8.890;2024-02-23T01:14:47;5.30;99.90
26224;DHT22;14820;48.682;8.890;2024-02-23T01:17:14;5.30;99.90
26224;DHT22;14820;48.682;8.890;2024-02-23T01:19:41;5.30;99.90
26224;DHT22;14820;48.682;8.890;2024-02-23T01:22:08;5.30;99.90
26224;DHT22;14820;48.682;8.890;2024-02-23T01:24:33;5.30;99.90
26224;DHT22;14820;48.682;8.890;2024-02-23T01:26:59;5.30;99.90
26224;DHT22;14820;48.682;8.890;2024-02-23T01:29:26;5.20;99.90
26224;DHT22;14820;48.682;8.890;2024-02-23T01:31:51;5.30;99.90
26224;DHT22;14820;48.682;8.890;2024-02-23T01:34:20;5.20;99.90
26224;DHT22;14820;48.682;8.890;2024-02-23T01:36:47;5.20;99.90
26224;DHT22;14820;48.682;8.890;2024-02-23T01:39:12;5.30;99.90
26224;DHT22;14820;48.682;8.890;2024-02-23T01:41:39;5.20;99.90
26224;DHT22;14820;48.682;8.890;2024-02-23T01:44:05;5.20;99.90
26224;DHT22;14820;48.682;8.890;2024-02-23T01:46:31;5.20;99.90
26224;DHT22;14820;48.682;8.890;2024-02-23T01:48:57;5.30;99.90
26224;DHT22;14820;48.682;8.890;2024-02-23T01:51:24;5.20;99.90
26224;DHT22;14820;48.682;8.890;2024-02-23T01:53:51;5.20;99.90
26224;DHT22;14820;48.682;8.890;2024-02-23T01:56:17;5.20;99.90
26224;DHT22;14820;48.682;8.890;2024-02-23T01:58:46;5.20;99.90
26224;DHT22;14820;48.682;8.890;2024-02-23T02:01:12;5.20;99.90
26224;DHT22;14820;48.682;8.890;2024-02-23T02:03:38;5.20;99.90
26224;DHT22;14820;48.682;8.890;2024-02-23T02:06:08;5.20;99.90
26224;DHT22;14820;48.682;8.890;2024-02-23T02:08:34;5.20;99.90
26224;DHT22;14820;48.682;8.890;2024-02-23T02:11:00;5.20;99.90
26224;DHT22;14820;48.682;8.890;2024-02-23T02:13:28;5.20;99.90
26224;DHT22;14820;48.682;8.890;2024-02-23T02:15:54;5.20;99.90
26224;DHT22;14820;48.682;8.890;2024-02-23T02:18:19;5.20;99.90
26224;DHT22;14820;48.682;8.890;2024-02-23T02:20:52;5.10;99.90
26224;DHT22;14820;48.682;8.890;2024-02-23T02:23:18;5.20;99.90
26224;DHT22;14820;48.682;8.890;2024-02-23T02:25:44;5.10;99.90
26224;DHT22;14820;48.682;8.890;2024-02-23T02:28:10;5.10;99.90
26224;DHT22;14820;48.682;8.890;2024-02-23T02:30:35;5.10;99.90
26224;DHT22;14820;48.682;8.890;2024-02-23T02:33:01;5.20;99.90
26224;DHT22;14820;48.682;8.890;2024-02-23T02:35:27;5.10;99.90
26224;DHT22;14820;48.682;8.890;2024-02-23T02:37:52;5.10;99.90
26224;DHT22;14820;48.682;8.890;2024-02-23T02:40:18;5.10;99.90
26224;DHT22;14820;48.682;8.890;2024-02-23T02:42:44;5.00;99.90
26224;DHT22;14820;48.682;8.890;2024-02-23T02:45:09;5.10;99.90
26224;DHT22;14820;48.682;8.890;2024-02-23T02:47:35;5.00;99.90
26224;DHT22;14820;48.682;8.890;2024-02-23T02:50:02;5.00;99.90
26224;DHT22;14820;48.682;8.890;2024-02-23T02:52:27;4.90;99.90
26224;DHT22;14820;48.682;8.890;2024-02-23T02:54:54;4.90;99.90
26224;DHT22;14820;48.682;8.890;2024-02-23T02:57:19;4.90;99.90
26224;DHT22;14820;48.682;8.890;2024-02-23T02:59:45;4.80;99.90
26224;DHT22;14820;48.682;8.890;2024-02-23T03:02:11;4.80;99.90
26224;DHT22;14820;48.682;8.890;2024-02-23T03:04:37;4.70;99.90
26224;DHT22;14820;48.682;8.890;2024-02-23T03:07:03;4.70;99.90
26224;DHT22;14820;48.682;8.890;2024-02-23T03:09:29;4.60;99.90
26224;DHT22;14820;48.682;8.890;2024-02-23T03:11:54;4.60;99.90
26224;DHT22;14820;48.682;8.890;2024-02-23T03:14:20;4.60;99.90
26224;DHT22;14820;48.682;8.890;2024-02-23T03:16:46;4.60;99.90
26224;DHT22;14820;48.682;8.890;2024-02-23T03:19:13;4.50;99.90
26224;DHT22;14820;48.682;8.890;2024-02-23T03:21:39;4.50;99.90
26224;DHT22;14820;48.682;8.890;2024-02-23T03:24:04;4.50;99.90
26224;DHT22;14820;48.682;8.890;2024-02-23T03:26:30;4.50;99.90
26224;DHT22;14820;48.682;8.890;2024-02-23T03:28:55;4.50;99.90
26224;DHT22;14820;48.682;8.890;2024-02-23T03:31:21;4.50;99.90
26224;DHT22;14820;48.682;8.890;2024-02-23T03:33:47;4.50;99.90
26224;DHT22;14820;48.682;8.890;2024-02-23T03:36:12;4.50;99.90
26224;DHT22;14820;48.682;8.890;2024-02-23T03:38:38;4.50;99.90
26224;DHT22;14820;48.682;8.890;2024-02-23T03:41:04;4.40;99.90
26224;DHT22;14820;48.682;8.890;2024-02-23T03:43:29;4.50;99.90
26224;DHT22;14820;48.682;8.890;2024-02-23T03:45:55;4.40;99.90
26224;DHT22;14820;48.682;8.890;2024-02-23T03:48:21;4.40;99.90
26224;DHT22;14820;48.682;8.890;2024-02-23T03:50:46;4.40;99.90
26224;DHT22;14820;48.682;8.890;2024-02-23T03:53:12;4.40;99.90
26224;DHT22;14820;48.682;8.890;2024-02-23T03:55:38;4.30;99.90
26224;DHT22;14820;48.682;8.890;2024-02-23T03:58:03;4.30;99.90
26224;DHT22;14820;48.682;8.890;2024-02-23T04:00:29;4.30;99.90
26224;DHT22;14820;48.682;8.890;2024-02-23T04:02:55;4.40;99.90
26224;DHT22;14820;48.682;8.890;2024-02-23T04:05:20;4.30;99.90
26224;DHT22;14820;48.682;8.890;2024-02-23T04:07:46;4.30;99.90
26224;DHT22;14820;48.682;8.890;2024-02-23T04:10:12;4.40;99.90
26224;DHT22;14820;48.682;8.890;2024-02-23T04:12:42;4.40;99.90
26224;DHT22;14820;48.682;8.890;2024-02-23T04:15:09;4.40;99.90
26224;DHT22;14820;48.682;8.890;2024-02-23T04:17:35;4.40;99.90
26224;DHT22;14820;48.682;8.890;2024-02-23T04:20:06;4.40;99.90
26224;DHT22;14820;48.682;8.890;2024-02-23T04:22:31;4.40;99.90
26224;DHT22;14820;48.682;8.890;2024-02-23T04:24:57;4.40;99.90
26224;DHT22;14820;48.682;8.890;2024-02-23T04:27:23;4.40;99.90
26224;DHT22;14820;48.682;8.890;2024-02-23T04:29:48;4.40;99.90
26224;DHT22;14820;48.682;8.890;2024-02-23T04:32:14;4.40;99.90
26224;DHT22;14820;48.682;8.890;2024-02-23T04:34:40;4.40;99.90
26224;DHT22;14820;48.682;8.890;2024-02-23T04:37:06;4.50;99.90
26224;DHT22;14820;48.682;8.890;2024-02-23T04:39:32;4.50;99.90
26224;DHT22;14820;48.682;8.890;2024-02-23T04:41:58;4.40;99.90
26224;DHT22;14820;48.682;8.890;2024-02-23T04:44:24;4.50;99.90
26224;DHT22;14820;48.682;8.890;2024-02-23T04:46:49;4.40;99.90
26224;DHT22;14820;48.682;8.890;2024-02-23T04:49:15;4.40;99.90
26224;DHT22;14820;48.682;8.890;2024-02-23T04:51:41;4.40;99.90
26224;DHT22;14820;48.682;8.890;2024-02-23T04:54:07;4.40;99.90
26224;DHT22;14820;48.682;8.890;2024-02-23T04:56:33;4.40;99.90
26224;DHT22;14820;48.682;8.890;2024-02-23T04:58:59;4.40;99.90
26224;DHT22;14820;48.682;8.890;2024-02-23T05:01:25;4.40;99.90
26224;DHT22;14820;48.682;8.890;2024-02-23T05:03:50;4.40;99.90
26224;DHT22;14820;48.682;8.890;2024-02-23T05:06:16;4.30;99.90
26224;DHT22;14820;48.682;8.890;2024-02-23T05:08:41;4.30;99.90
26224;DHT22;14820;48.682;8.890;2024-02-23T05:11:07;4.30;99.90
26224;DHT22;14820;48.682;8.890;2024-02-23T05:13:33;4.30;99.90
26224;DHT22;14820;48.682;8.890;2024-02-23T05:15:58;4.30;99.90
26224;DHT22;14820;48.682;8.890;2024-02-23T05:18:24;4.20;99.90
26224;DHT22;14820;48.682;8.890;2024-02-23T05:20:49;4.20;99.90
26224;DHT22;14820;48.682;8.890;2024-02-23T05:23:15;4.20;99.90
26224;DHT22;14820;48.682;8.890;2024-02-23T05:25:44;4.10;99.90
26224;DHT22;14820;48.682;8.890;2024-02-23T05:28:09;4.10;99.90
26224;DHT22;14820;48.682;8.890;2024-02-23T05:30:35;4.10;99.90
26224;DHT22;14820;48.682;8.890;2024-02-23T05:33:01;4.10;99.90
26224;DHT22;14820;48.682;8.890;2024-02-23T05:35:29;4.10;99.90
26224;DHT22;14820;48.682;8.890;2024-02-23T05:37:54;4.00;99.90
26224;DHT22;14820;48.682;8.890;2024-02-23T05:40:21;4.00;99.90
26224;DHT22;14820;48.682;8.890;2024-02-23T05:42:46;4.00;99.90
26224;DHT22;14820;48.682;8.890;2024-02-23T05:45:12;4.00;99.90
26224;DHT22;14820;48.682;8.890;2024-02-23T05:47:40;3.90;99.90
26224;DHT22;14820;48.682;8.890;2024-02-23T05:50:08;3.90;99.90
26224;DHT22;14820;48.682;8.890;2024-02-23T05:52:36;3.90;99.90
26224;DHT22;14820;48.682;8.890;2024-02-23T05:55:03;3.80;99.90
26224;DHT22;14820;48.682;8.890;2024-02-23T05:57:31;3.80;99.90
26224;DHT22;14820;48.682;8.890;2024-02-23T05:59:57;3.80;99.90
26224;DHT22;14820;48.682;8.890;2024-02-23T06:02:23;3.80;99.90
26224;DHT22;14820;48.682;8.890;2024-02-23T06:04:49;3.70;99.90
26224;DHT22;14820;48.682;8.890;2024-02-23T06:07:15;3.60;99.90
26224;DHT22;14820;48.682;8.890;2024-02-23T06:09:46;3.60;99.90
26224;DHT22;14820;48.682;8.890;2024-02-23T06:12:11;3.60;99.90
26224;DHT22;14820;48.682;8.890;2024-02-23T06:14:37;3.60;99.90
26224;DHT22;14820;48.682;8.890;2024-02-23T06:17:03;3.60;99.90
26224;DHT22;14820;48.682;8.890;2024-02-23T06:19:29;3.60;99.90
26224;DHT22;14820;48.682;8.890;2024-02-23T06:21:55;3.50;99.90
26224;DHT22;14820;48.682;8.890;2024-02-23T06:24:20;3.50;99.90
26224;DHT22;14820;48.682;8.890;2024-02-23T06:26:46;3.50;99.90
26224;DHT22;14820;48.682;8.890;2024-02-23T06:29:14;3.50;99.90
26224;DHT22;14820;48.682;8.890;2024-02-23T06:31:40;3.60;99.90
26224;DHT22;14820;48.682;8.890;2024-02-23T06:34:07;3.60;99.90
26224;DHT22;14820;48.682;8.890;2024-02-23T06:36:33;3.70;99.90
26224;DHT22;14820;48.682;8.890;2024-02-23T06:38:58;3.70;99.90
26224;DHT22;14820;48.682;8.890;2024-02-23T06:41:24;3.80;99.90
26224;DHT22;14820;48.682;8.890;2024-02-23T06:43:49;3.80;99.90
26224;DHT22;14820;48.682;8.890;2024-02-23T06:46:19;3.80;99.90
26224;DHT22;14820;48.682;8.890;2024-02-23T06:48:45;3.80;99.90
26224;DHT22;14820;48.682;8.890;2024-02-23T06:51:11;3.80;99.90
26224;DHT22;14820;48.682;8.890;2024-02-23T06:53:37;3.80;99.90
26224;DHT22;14820;48.682;8.890;2024-02-23T06:56:03;3.80;99.90
26224;DHT22;14820;48.682;8.890;2024-02-23T06:58:29;3.80;99.90
26224;DHT22;14820;48.682;8.890;2024-02-23T07:00:55;3.80;99.90
26224;DHT22;14820;48.682;8.890;2024-02-23T07:03:20;3.70;99.90
26224;DHT22;14820;48.682;8.890;2024-02-23T07:05:46;3.80;99.90
26224;DHT22;14820;48.682;8.890;2024-02-23T07:08:12;3.70;99.90
26224;DHT22;14820;48.682;8.890;2024-02-23T07:10:38;3.80;99.90
26224;DHT22;14820;48.682;8.890;2024-02-23T07:13:04;3.80;99.90
26224;DHT22;14820;48.682;8.890;2024-02-23T07:15:30;3.80;99.90
26224;DHT22;14820;48.682;8.890;2024-02-23T07:17:58;3.80;99.90
26224;DHT22;14820;48.682;8.890;2024-02-23T07:20:23;3.80;99.90
26224;DHT22;14820;48.682;8.890;2024-02-23T07:22:49;3.90;99.90
26224;DHT22;14820;48.682;8.890;2024-02-23T07:25:19;3.90;99.90
26224;DHT22;14820;48.682;8.890;2024-02-23T07:27:47;3.80;99.90
26224;DHT22;14820;48.682;8.890;2024-02-23T07:30:16;3.80;99.90
26224;DHT22;14820;48.682;8.890;2024-02-23T07:32:43;3.80;99.90
26224;DHT22;14820;48.682;8.890;2024-02-23T07:35:09;3.80;99.90
26224;DHT22;14820;48.682;8.890;2024-02-23T07:37:36;3.80;99.90
26224;DHT22;14820;48.682;8.890;2024-02-23T07:40:01;3.90;99.90
26224;DHT22;14820;48.682;8.890;2024-02-23T07:42:29;3.90;99.90
26224;DHT22;14820;48.682;8.890;2024-02-23T07:44:55;3.90;99.90
26224;DHT22;14820;48.682;8.890;2024-02-23T07:47:21;3.90;99.90
26224;DHT22;14820;48.682;8.890;2024-02-23T07:49:47;4.00;99.90
26224;DHT22;14820;48.682;8.890;2024-02-23T07:52:13;4.00;99.90
26224;DHT22;14820;48.682;8.890;2024-02-23T07:54:38;4.00;99.90
26224;DHT22;14820;48.682;8.890;2024-02-23T07:57:04;4.00;99.90
26224;DHT22;14820;48.682;8.890;2024-02-23T07:59:30;4.10;99.90
26224;DHT22;14820;48.682;8.890;2024-02-23T08:01:56;4.00;99.90
26224;DHT22;14820;48.682;8.890;2024-02-23T08:04:22;4.10;99.90
26224;DHT22;14820;48.682;8.890;2024-02-23T08:06:48;4.10;99.90
26224;DHT22;14820;48.682;8.890;2024-02-23T08:09:14;4.10;99.90
26224;DHT22;14820;48.682;8.890;2024-02-23T08:11:40;4.10;99.90
26224;DHT22;14820;48.682;8.890;2024-02-23T08:14:06;4.10;99.90
26224;DHT22;14820;48.682;8.890;2024-02-23T08:16:32;4.00;99.90
26224;DHT22;14820;48.682;8.890;2024-02-23T08:18:58;4.10;99.90
26224;DHT22;14820;48.682;8.890;2024-02-23T08:21:25;4.10;99.90
26224;DHT22;14820;48.682;8.890;2024-02-23T08:23:51;4.10;99.90
26224;DHT22;14820;48.682;8.890;2024-02-23T08:26:17;4.10;99.90
26224;DHT22;14820;48.682;8.890;2024-02-23T08:28:43;4.20;99.90
26224;DHT22;14820;48.682;8.890;2024-02-23T08:31:08;4.20;99.90
26224;DHT22;14820;48.682;8.890;2024-02-23T08:33:34;4.20;99.90
26224;DHT22;14820;48.682;8.890;2024-02-23T08:36:00;4.20;99.90
26224;DHT22;14820;48.682;8.890;2024-02-23T08:38:25;4.20;99.90
26224;DHT22;14820;48.682;8.890;2024-02-23T08:40:51;4.20;99.90
26224;DHT22;14820;48.682;8.890;2024-02-23T08:43:17;4.20;99.90
26224;DHT22;14820;48.682;8.890;2024-02-23T08:45:42;4.20;99.90
26224;DHT22;14820;48.682;8.890;2024-02-23T08:48:08;4.30;99.90
26224;DHT22;14820;48.682;8.890;2024-02-23T08:50:34;4.30;99.90
26224;DHT22;14820;48.682;8.890;2024-02-23T08:52:59;4.40;99.90
26224;DHT22;14820;48.682;8.890;2024-02-23T08:55:25;4.40;99.90
26224;DHT22;14820;48.682;8.890;2024-02-23T08:57:51;4.40;99.90
26224;DHT22;14820;48.682;8.890;2024-02-23T09:00:17;4.40;99.90
26224;DHT22;14820;48.682;8.890;2024-02-23T09:02:43;4.40;99.90
26224;DHT22;14820;48.682;8.890;2024-02-23T09:05:09;4.40;99.90
26224;DHT22;14820;48.682;8.890;2024-02-23T09:07:35;4.40;99.90
26224;DHT22;14820;48.682;8.890;2024-02-23T09:10:01;4.50;99.90
26224;DHT22;14820;48.682;8.890;2024-02-23T09:12:27;4.60;99.90
26224;DHT22;14820;48.682;8.890;2024-02-23T09:14:52;4.70;99.90
26224;DHT22;14820;48.682;8.890;2024-02-23T09:17:18;4.70;99.90
26224;DHT22;14820;48.682;8.890;2024-02-23T09:19:46;4.80;99.90
26224;DHT22;14820;48.682;8.890;2024-02-23T09:22:11;4.90;99.90
26224;DHT22;14820;48.682;8.890;2024-02-23T09:24:40;4.90;99.90
26224;DHT22;14820;48.682;8.890;2024-02-23T09:27:06;4.90;99.90
26224;DHT22;14820;48.682;8.890;2024-02-23T09:29:32;4.90;99.90
26224;DHT22;14820;48.682;8.890;2024-02-23T09:31:58;4.80;99.90
26224;DHT22;14820;48.682;8.890;2024-02-23T09:34:24;4.80;99.90
26224;DHT22;14820;48.682;8.890;2024-02-23T09:36:50;4.80;99.90
26224;DHT22;14820;48.682;8.890;2024-02-23T09:39:16;4.80;99.90
26224;DHT22;14820;48.682;8.890;2024-02-23T09:41:42;4.90;99.90
26224;DHT22;14820;48.682;8.890;2024-02-23T09:44:09;4.90;99.90
26224;DHT22;14820;48.682;8.890;2024-02-23T09:46:37;4.90;99.90
26224;DHT22;14820;48.682;8.890;2024-02-23T09:49:03;4.80;99.90
26224;DHT22;14820;48.682;8.890;2024-02-23T09:51:32;4.80;99.90
26224;DHT22;14820;48.682;8.890;2024-02-23T09:53:59;4.80;99.90
26224;DHT22;14820;48.682;8.890;2024-02-23T09:56:27;4.90;99.90
26224;DHT22;14820;48.682;8.890;2024-02-23T09:58:57;4.90;99.90
26224;DHT22;14820;48.682;8.890;2024-02-23T10:01:28;4.80;99.90
26224;DHT22;14820;48.682;8.890;2024-02-23T10:03:57;4.90;99.90
26224;DHT22;14820;48.682;8.890;2024-02-23T10:06:24;4.90;99.90
26224;DHT22;14820;48.682;8.890;2024-02-23T10:08:50;4.90;99.90
26224;DHT22;14820;48.682;8.890;2024-02-23T10:11:18;4.90;99.90
26224;DHT22;14820;48.682;8.890;2024-02-23T10:13:44;4.90;99.90
26224;DHT22;14820;48.682;8.890;2024-02-23T10:16:10;5.00;99.90
26224;DHT22;14820;48.682;8.890;2024-02-23T10:18:38;5.00;99.90
26224;DHT22;14820;48.682;8.890;2024-02-23T10:21:05;5.00;99.90
26224;DHT22;14820;48.682;8.890;2024-02-23T10:23:30;5.00;99.90
26224;DHT22;14820;48.682;8.890;2024-02-23T10:25:56;5.00;99.90
26224;DHT22;14820;48.682;8.890;2024-02-23T10:28:22;5.00;99.90
26224;DHT22;14820;48.682;8.890;2024-02-23T10:30:48;5.00;99.90
26224;DHT22;14820;48.682;8.890;2024-02-23T10:33:14;5.10;99.90
26224;DHT22;14820;48.682;8.890;2024-02-23T10:35:41;5.10;99.90
26224;DHT22;14820;48.682;8.890;2024-02-23T10:38:08;5.10;99.90
26224;DHT22;14820;48.682;8.890;2024-02-23T10:40:39;5.10;99.90
26224;DHT22;14820;48.682;8.890;2024-02-23T10:43:12;5.20;99.90
26224;DHT22;14820;48.682;8.890;2024-02-23T10:45:39;5.20;99.90
26224;DHT22;14820;48.682;8.890;2024-02-23T10:48:09;5.30;99.90
26224;DHT22;14820;48.682;8.890;2024-02-23T10:50:35;5.30;99.90
26224;DHT22;14820;48.682;8.890;2024-02-23T10:53:01;5.40;99.90
26224;DHT22;14820;48.682;8.890;2024-02-23T10:55:31;5.50;99.90
26224;DHT22;14820;48.682;8.890;2024-02-23T10:57:58;5.60;99.90
26224;DHT22;14820;48.682;8.890;2024-02-23T11:00:24;5.60;99.90
26224;DHT22;14820;48.682;8.890;2024-02-23T11:02:53;5.70;99.90
26224;DHT22;14820;48.682;8.890;2024-02-23T11:05:20;5.70;99.90
26224;DHT22;14820;48.682;8.890;2024-02-23T11:07:46;5.80;99.90
26224;DHT22;14820;48.682;8.890;2024-02-23T11:10:16;5.90;99.90
26224;DHT22;14820;48.682;8.890;2024-02-23T11:12:43;5.80;99.90
26224;DHT22;14820;48.682;8.890;2024-02-23T11:15:09;5.90;99.90
26224;DHT22;14820;48.682;8.890;2024-02-23T11:17:36;5.90;99.90
26224;DHT22;14820;48.682;8.890;2024-02-23T11:20:05;5.90;99.90
26224;DHT22;14820;48.682;8.890;2024-02-23T11:22:33;5.90;99.90
26224;DHT22;14820;48.682;8.890;2024-02-23T11:25:04;6.00;99.90
26224;DHT22;14820;48.682;8.890;2024-02-23T11:27:31;6.00;99.90
26224;DHT22;14820;48.682;8.890;2024-02-23T11:30:08;5.90;99.90
26224;DHT22;14820;48.682;8.890;2024-02-23T11:32:40;6.00;99.90
26224;DHT22;14820;48.682;8.890;2024-02-23T11:35:07;6.00;99.90
26224;DHT22;14820;48.682;8.890;2024-02-23T11:37:47;6.00;99.90
26224;DHT22;14820;48.682;8.890;2024-02-23T11:40:13;6.10;99.90
26224;DHT22;14820;48.682;8.890;2024-02-23T11:42:41;6.10;99.90
26224;DHT22;14820;48.682;8.890;2024-02-23T11:45:08;6.10;99.90
26224;DHT22;14820;48.682;8.890;2024-02-23T11:47:34;6.20;99.90
26224;DHT22;14820;48.682;8.890;2024-02-23T11:49:59;6.20;99.90
26224;DHT22;14820;48.682;8.890;2024-02-23T11:52:25;6.30;99.90
26224;DHT22;14820;48.682;8.890;2024-02-23T11:54:51;6.20;99.90
26224;DHT22;14820;48.682;8.890;2024-02-23T11:57:17;6.30;99.90
26224;DHT22;14820;48.682;8.890;2024-02-23T11:59:43;6.30;99.90
26224;DHT22;14820;48.682;8.890;2024-02-23T12:02:09;6.30;99.90
26224;DHT22;14820;48.682;8.890;2024-02-23T12:04:34;6.40;99.90
26224;DHT22;14820;48.682;8.890;2024-02-23T12:07:00;6.40;99.90
26224;DHT22;14820;48.682;8.890;2024-02-23T12:09:26;6.40;99.90
26224;DHT22;14820;48.682;8.890;2024-02-23T12:11:52;6.40;99.90
26224;DHT22;14820;48.682;8.890;2024-02-23T12:14:18;6.40;99.90
26224;DHT22;14820;48.682;8.890;2024-02-23T12:16:45;6.40;99.90
26224;DHT22;14820;48.682;8.890;2024-02-23T12:19:10;6.50;99.90
26224;DHT22;14820;48.682;8.890;2024-02-23T12:21:36;6.60;99.90
26224;DHT22;14820;48.682;8.890;2024-02-23T12:24:04;6.70;99.90
26224;DHT22;14820;48.682;8.890;2024-02-23T12:26:32;6.70;99.90
26224;DHT22;14820;48.682;8.890;2024-02-23T12:29:01;6.70;99.90
26224;DHT22;14820;48.682;8.890;2024-02-23T12:31:28;6.80;99.90
26224;DHT22;14820;48.682;8.890;2024-02-23T12:33:54;6.70;99.90
26224;DHT22;14820;48.682;8.890;2024-02-23T12:36:23;6.70;99.90
26224;DHT22;14820;48.682;8.890;2024-02-23T12:38:49;6.70;99.90
26224;DHT22;14820;48.682;8.890;2024-02-23T12:41:14;6.70;99.90
26224;DHT22;14820;48.682;8.890;2024-02-23T12:43:40;6.70;99.90
26224;DHT22;14820;48.682;8.890;2024-02-23T12:46:06;6.60;99.90
26224;DHT22;14820;48.682;8.890;2024-02-23T12:48:34;6.60;99.90
26224;DHT22;14820;48.682;8.890;2024-02-23T12:51:00;6.60;99.90
26224;DHT22;14820;48.682;8.890;2024-02-23T12:53:36;6.60;99.90
26224;DHT22;14820;48.682;8.890;2024-02-23T12:58:30;6.60;99.90
26224;DHT22;14820;48.682;8.890;2024-02-23T13:00:56;6.60;99.90
26224;DHT22;14820;48.682;8.890;2024-02-23T13:03:24;6.60;99.90
26224;DHT22;14820;48.682;8.890;2024-02-23T13:05:50;6.60;99.90
26224;DHT22;14820;48.682;8.890;2024-02-23T13:08:16;6.60;99.90
26224;DHT22;14820;48.682;8.890;2024-02-23T13:10:42;6.60;99.90
26224;DHT22;14820;48.682;8.890;2024-02-23T13:13:07;6.60;99.90
26224;DHT22;14820;48.682;8.890;2024-02-23T13:15:33;6.60;99.90
26224;DHT22;14820;48.682;8.890;2024-02-23T13:17:59;6.60;99.90
26224;DHT22;14820;48.682;8.890;2024-02-23T13:20:24;6.60;99.90
26224;DHT22;14820;48.682;8.890;2024-02-23T13:22:50;6.60;99.90
26224;DHT22;14820;48.682;8.890;2024-02-23T13:25:16;6.60;99.90
26224;DHT22;14820;48.682;8.890;2024-02-23T13:27:41;6.60;99.90
26224;DHT22;14820;48.682;8.890;2024-02-23T13:30:07;6.60;99.90
26224;DHT22;14820;48.682;8.890;2024-02-23T13:32:33;6.60;99.90
26224;DHT22;14820;48.682;8.890;2024-02-23T13:34:59;6.70;99.90
26224;DHT22;14820;48.682;8.890;2024-02-23T13:37:29;6.70;99.90
26224;DHT22;14820;48.682;8.890;2024-02-23T13:39:55;6.60;99.90
26224;DHT22;14820;48.682;8.890;2024-02-23T13:42:21;6.60;99.90
26224;DHT22;14820;48.682;8.890;2024-02-23T13:44:46;6.70;99.90
26224;DHT22;14820;48.682;8.890;2024-02-23T13:47:12;6.70;99.90
26224;DHT22;14820;48.682;8.890;2024-02-23T13:49:38;6.70;99.90
26224;DHT22;14820;48.682;8.890;2024-02-23T13:52:03;6.70;99.90
26224;DHT22;14820;48.682;8.890;2024-02-23T13:54:29;6.70;99.90
26224;DHT22;14820;48.682;8.890;2024-02-23T13:56:55;6.80;99.90
26224;DHT22;14820;48.682;8.890;2024-02-23T13:59:20;6.80;99.90
26224;DHT22;14820;48.682;8.890;2024-02-23T14:01:46;6.90;99.90
26224;DHT22;14820;48.682;8.890;2024-02-23T14:04:12;7.10;99.90
26224;DHT22;14820;48.682;8.890;2024-02-23T14:06:38;7.20;99.90
26224;DHT22;14820;48.682;8.890;2024-02-23T14:09:04;7.30;99.90
26224;DHT22;14820;48.682;8.890;2024-02-23T14:11:30;7.40;99.90
26224;DHT22;14820;48.682;8.890;2024-02-23T14:13:56;7.40;99.90
26224;DHT22;14820;48.682;8.890;2024-02-23T14:16:22;7.40;99.90
26224;DHT22;14820;48.682;8.890;2024-02-23T14:18:51;7.40;99.90
26224;DHT22;14820;48.682;8.890;2024-02-23T14:21:16;7.40;99.90
26224;DHT22;14820;48.682;8.890;2024-02-23T14:23:43;7.40;99.90
26224;DHT22;14820;48.682;8.890;2024-02-23T14:26:09;7.30;99.90
26224;DHT22;14820;48.682;8.890;2024-02-23T14:28:35;7.30;99.90
26224;DHT22;14820;48.682;8.890;2024-02-23T14:31:01;7.20;99.90
26224;DHT22;14820;48.682;8.890;2024-02-23T14:33:26;7.20;99.90
26224;DHT22;14820;48.682;8.890;2024-02-23T14:35:52;7.10;99.90
26224;DHT22;14820;48.682;8.890;2024-02-23T14:38:18;7.10;99.90
26224;DHT22;14820;48.682;8.890;2024-02-23T14:40:43;7.10;99.90
26224;DHT22;14820;48.682;8.890;2024-02-23T14:43:09;7.10;99.90
26224;DHT22;14820;48.682;8.890;2024-02-23T14:45:37;7.10;99.90
26224;DHT22;14820;48.682;8.890;2024-02-23T14:48:03;7.10;99.90
26224;DHT22;14820;48.682;8.890;2024-02-23T14:50:29;7.10;99.90
26224;DHT22;14820;48.682;8.890;2024-02-23T14:52:55;7.10;99.90
26224;DHT22;14820;48.682;8.890;2024-02-23T14:55:21;7.00;99.90
26224;DHT22;14820;48.682;8.890;2024-02-23T14:57:47;7.00;99.90
26224;DHT22;14820;48.682;8.890;2024-02-23T15:00:13;7.00;99.90
26224;DHT22;14820;48.682;8.890;2024-02-23T15:02:39;7.00;99.90
26224;DHT22;14820;48.682;8.890;2024-02-23T15:05:05;7.00;99.90
26224;DHT22;14820;48.682;8.890;2024-02-23T15:07:32;6.90;99.90
26224;DHT22;14820;48.682;8.890;2024-02-23T15:09:58;6.90;99.90
26224;DHT22;14820;48.682;8.890;2024-02-23T15:12:25;6.80;99.90
26224;DHT22;14820;48.682;8.890;2024-02-23T15:14:53;6.80;99.90
26224;DHT22;14820;48.682;8.890;2024-02-23T15:17:22;6.70;99.90
26224;DHT22;14820;48.682;8.890;2024-02-23T15:19:47;6.60;99.90
26224;DHT22;14820;48.682;8.890;2024-02-23T15:22:13;6.80;99.90
26224;DHT22;14820;48.682;8.890;2024-02-23T15:24:40;7.10;99.90
26224;DHT22;14820;48.682;8.890;2024-02-23T15:27:11;7.30;99.90
26224;DHT22;14820;48.682;8.890;2024-02-23T15:29:36;7.40;99.90
26224;DHT22;14820;48.682;8.890;2024-02-23T15:32:02;7.50;99.90
26224;DHT22;14820;48.682;8.890;2024-02-23T15:34:28;7.50;99.90
26224;DHT22;14820;48.682;8.890;2024-02-23T15:36:54;7.40;99.90
26224;DHT22;14820;48.682;8.890;2024-02-23T15:39:20;7.40;99.90
26224;DHT22;14820;48.682;8.890;2024-02-23T15:41:46;7.30;99.90